Terminal Aerodrome Forecast
Issued by NWS

Home | Current Version | Previous Version | Text Only | Print | Product List | Glossary On
Versions: 1 2 3 4 5 6 7 8 9 10 11 12 13 14 15 16 17 18 19 20 21 22 23 24 25 26 27 28 29 30 31 32 33 34
000
FTUS44 KOUN 282320
TAFLAW
TAF
KLAW 282320Z 2900/2924 33006KT P6SM VCTS BKN040 OVC090CB
      TEMPO 2900/2903 5SM -TSRA BR BKN025CB
     FM290500 15012KT P6SM VCSH SCT015 BKN050
      TEMPO 2906/2910 VRB12G25KT 6SM -SHRA BR BKN025
     FM291200 17012KT P6SM SCT030 BKN120=

USA.gov is the U.S. government's official web portal to all federal, state and local government web resources and services.